createdAt,value
2023-04-14T00:01:16.659Z,92.63
2023-04-14T00:04:05.317Z,91.85
2023-04-14T00:06:57.051Z,91.72
2023-04-14T00:09:46.790Z,92.88
2023-04-14T00:12:35.218Z,92.93
2023-04-14T00:15:23.725Z,93.08
2023-04-14T00:18:12.107Z,93.25
2023-04-14T00:21:01.133Z,93.42
2023-04-14T00:23:49.599Z,93.63
2023-04-14T00:26:39.371Z,94.13
2023-04-14T00:29:27.781Z,94.25
2023-04-14T00:32:16.812Z,93.89
2023-04-14T00:35:05.816Z,94.26
2023-04-14T00:37:56.603Z,93.83
2023-04-14T00:40:45.101Z,94.00
2023-04-14T00:43:34.812Z,93.66
2023-04-14T00:46:23.623Z,94.02
2023-04-14T00:49:13.709Z,94.11
2023-04-14T00:52:02.738Z,94.41
2023-04-14T00:54:51.321Z,94.52
2023-04-14T00:57:40.098Z,94.24
2023-04-14T01:00:29.849Z,93.68
2023-04-14T01:03:18.337Z,93.44
2023-04-14T01:06:07.166Z,92.67
2023-04-14T01:08:57.745Z,92.74
2023-04-14T01:11:51.903Z,92.79
2023-04-14T01:14:43.412Z,92.27
2023-04-14T01:17:37.183Z,92.99
2023-04-14T01:20:32.331Z,93.25
2023-04-14T01:23:24.986Z,93.31
2023-04-14T01:26:20.816Z,92.77
2023-04-14T01:29:35.308Z,92.87
2023-04-14T01:32:27.120Z,92.38
2023-04-14T01:35:20.822Z,93.63
2023-04-14T01:38:13.880Z,93.17
2023-04-14T01:41:06.730Z,92.44
2023-04-14T01:43:55.848Z,92.93
2023-04-14T01:46:45.241Z,92.68
2023-04-14T01:49:37.821Z,92.63
2023-04-14T01:52:27.903Z,91.60
2023-04-14T01:55:18.717Z,91.32
2023-04-14T01:58:08.624Z,91.41
2023-04-14T02:00:58.786Z,90.87
2023-04-14T02:03:48.201Z,89.93
2023-04-14T02:06:38.926Z,90.48
2023-04-14T02:09:27.882Z,89.76
2023-04-14T02:12:18.109Z,89.82
2023-04-14T02:15:08.311Z,89.60
2023-04-14T02:17:58.899Z,90.84
2023-04-14T02:20:48.194Z,90.98
2023-04-14T02:23:37.961Z,91.68
2023-04-14T02:26:29.066Z,92.27
2023-04-14T02:29:22.057Z,92.36
2023-04-14T02:32:15.938Z,92.09
2023-04-14T02:35:09.465Z,91.62
2023-04-14T02:38:06.914Z,91.37
2023-04-14T02:40:56.716Z,91.13
2023-04-14T02:43:48.715Z,91.52
2023-04-14T02:46:43.771Z,91.89
2023-04-14T02:49:34.344Z,92.13
2023-04-14T02:52:24.658Z,92.43
2023-04-14T02:55:15.731Z,92.23
2023-04-14T02:58:06.194Z,91.58
2023-04-14T03:00:59.149Z,92.08
2023-04-14T03:03:48.053Z,91.79
2023-04-14T03:06:39.810Z,91.42
2023-04-14T03:09:28.543Z,91.29
2023-04-14T03:12:18.310Z,91.50
2023-04-14T03:15:09.172Z,91.88
2023-04-14T03:17:58.548Z,91.96
2023-04-14T03:20:50.211Z,91.54
2023-04-14T03:23:39.768Z,91.83
2023-04-14T03:26:31.053Z,91.71
2023-04-14T03:29:21.731Z,92.02
2023-04-14T03:32:12.447Z,91.74
2023-04-14T03:35:03.418Z,92.35
2023-04-14T03:37:53.171Z,92.64
2023-04-14T03:40:44.427Z,93.67
2023-04-14T03:43:34.370Z,94.75
2023-04-14T03:46:28.939Z,95.15
2023-04-14T03:49:20.975Z,96.62
2023-04-14T03:52:13.299Z,94.76
2023-04-14T03:55:06.443Z,94.31
2023-04-14T03:57:57.698Z,94.20
2023-04-14T04:00:47.703Z,94.40
2023-04-14T04:03:38.412Z,93.81
2023-04-14T04:06:28.871Z,94.74
2023-04-14T04:09:18.111Z,94.13
2023-04-14T04:12:07.440Z,94.17
2023-04-14T04:14:56.454Z,92.82
2023-04-14T04:17:45.503Z,92.77
2023-04-14T04:20:37.010Z,91.98
2023-04-14T04:23:27.490Z,92.26
2023-04-14T04:26:17.090Z,92.31
2023-04-14T04:29:05.907Z,92.54
2023-04-14T04:31:55.685Z,92.21
2023-04-14T04:34:45.549Z,92.62
2023-04-14T04:37:34.649Z,92.17
2023-04-14T04:40:24.715Z,92.06
2023-04-14T04:43:13.848Z,92.89
2023-04-14T04:46:26.649Z,92.85
2023-04-14T04:49:15.071Z,92.83
2023-04-14T04:52:03.455Z,92.63
2023-04-14T04:54:52.593Z,93.25
2023-04-14T04:57:42.383Z,93.99
2023-04-14T05:00:30.708Z,94.01
2023-04-14T05:03:19.067Z,94.87
2023-04-14T05:06:07.619Z,93.77
2023-04-14T05:08:56.549Z,93.39
2023-04-14T05:11:44.912Z,93.80
2023-04-14T05:14:34.663Z,93.63
2023-04-14T05:17:23.199Z,94.26
2023-04-14T05:20:12.541Z,94.13
2023-04-14T05:23:00.915Z,93.93
2023-04-14T05:25:49.281Z,93.47
2023-04-14T05:28:37.615Z,93.12
2023-04-14T05:31:27.431Z,93.34
2023-04-14T05:34:16.121Z,93.56
2023-04-14T05:37:04.466Z,93.13
2023-04-14T05:39:52.815Z,92.78
2023-04-14T05:42:41.932Z,93.01
2023-04-14T05:45:30.320Z,93.74
2023-04-14T05:48:20.057Z,94.11
2023-04-14T05:51:08.341Z,94.42
2023-04-14T05:53:56.940Z,93.85
2023-04-14T05:56:45.336Z,94.17
2023-04-14T05:59:33.652Z,93.92
2023-04-14T06:02:22.173Z,93.76
2023-04-14T06:05:12.932Z,93.44
2023-04-14T06:08:01.464Z,93.44
2023-04-14T06:10:49.839Z,93.27
2023-04-14T06:13:38.187Z,92.62
2023-04-14T06:16:26.534Z,92.43
2023-04-14T06:19:14.841Z,92.96
2023-04-14T06:22:05.593Z,93.24
2023-04-14T06:24:54.000Z,93.10
2023-04-14T06:27:42.337Z,93.44
2023-04-14T06:30:32.287Z,93.51
2023-04-14T06:33:20.605Z,93.61
2023-04-14T06:36:09.428Z,93.86
2023-04-14T06:38:59.564Z,93.78
2023-04-14T06:41:48.190Z,94.23
2023-04-14T06:44:36.547Z,94.01
2023-04-14T06:47:25.513Z,93.78
2023-04-14T06:50:14.510Z,93.83
2023-04-14T06:53:03.176Z,93.88
2023-04-14T06:55:59.513Z,94.26
2023-04-14T06:58:48.426Z,94.15
2023-04-14T07:01:55.234Z,93.99
2023-04-14T07:05:02.456Z,93.99
2023-04-14T07:07:51.079Z,93.52
2023-04-14T07:10:39.522Z,94.56
2023-04-14T07:13:29.411Z,94.81
2023-04-14T07:16:17.937Z,95.56
2023-04-14T07:19:06.353Z,95.34
2023-04-14T07:21:54.707Z,94.33
2023-04-14T07:24:43.093Z,94.57
2023-04-14T07:27:32.012Z,94.59
2023-04-14T07:30:22.274Z,94.42
2023-04-14T07:33:10.700Z,94.72
2023-04-14T07:36:03.559Z,94.41
2023-04-14T07:38:52.478Z,94.35
2023-04-14T07:41:41.306Z,93.83
2023-04-14T07:44:29.699Z,95.04
2023-04-14T07:47:19.552Z,94.35
2023-04-14T07:50:08.959Z,93.85
2023-04-14T07:52:57.318Z,94.26
2023-04-14T07:55:45.772Z,94.50
2023-04-14T07:58:34.200Z,94.68
2023-04-14T08:01:22.709Z,94.13
2023-04-14T08:04:12.518Z,93.19
2023-04-14T08:07:01.515Z,93.37
2023-04-14T08:09:50.658Z,93.32
2023-04-14T08:12:39.064Z,93.31
2023-04-14T08:15:27.672Z,92.83
2023-04-14T08:18:16.389Z,92.62
2023-04-14T08:21:06.913Z,92.68
2023-04-14T08:23:55.260Z,92.93
2023-04-14T08:26:43.627Z,92.81
2023-04-14T08:29:31.981Z,92.40
2023-04-14T08:32:20.440Z,92.89
2023-04-14T08:35:35.927Z,91.99
2023-04-14T08:38:20.970Z,91.87
2023-04-14T08:41:10.011Z,91.19
2023-04-14T08:43:58.426Z,91.93
2023-04-14T08:46:46.955Z,92.49
2023-04-14T08:49:42.133Z,91.39
2023-04-14T08:52:32.119Z,92.78
2023-04-14T08:55:22.371Z,93.20
2023-04-14T08:58:11.584Z,93.01
2023-04-14T09:01:00.442Z,93.12
2023-04-14T09:03:49.724Z,93.48
2023-04-14T09:06:38.214Z,93.30
2023-04-14T09:09:26.828Z,93.22
2023-04-14T09:12:18.166Z,93.17
2023-04-14T09:15:07.782Z,94.16
2023-04-14T09:17:56.564Z,93.73
2023-04-14T09:20:47.955Z,93.36
2023-04-14T09:23:56.411Z,93.55
2023-04-14T09:26:44.805Z,93.20
2023-04-14T09:29:36.537Z,93.52
2023-04-14T09:32:24.888Z,94.56
2023-04-14T09:35:14.292Z,93.26
2023-04-14T09:38:03.014Z,93.71
2023-04-14T09:40:54.859Z,93.02
2023-04-14T09:43:44.161Z,92.79
2023-04-14T09:46:33.930Z,93.06
2023-04-14T09:49:22.372Z,92.25
2023-04-14T09:52:11.334Z,90.68
2023-04-14T09:55:00.028Z,92.54
2023-04-14T09:57:48.503Z,92.19
2023-04-14T10:00:37.010Z,92.92
2023-04-14T10:03:38.741Z,92.89
2023-04-14T10:06:27.613Z,92.15
2023-04-14T10:09:22.151Z,91.00
2023-04-14T10:12:13.256Z,90.90
2023-04-14T10:15:01.651Z,91.79
2023-04-14T10:17:50.069Z,89.46
2023-04-14T10:20:39.823Z,89.22
2023-04-14T10:23:28.561Z,88.58
2023-04-14T10:26:17.207Z,90.13
2023-04-14T10:29:05.837Z,88.56
2023-04-14T10:31:56.652Z,90.15
2023-04-14T10:34:56.292Z,87.74
2023-04-14T10:37:53.696Z,86.20
2023-04-14T10:40:48.563Z,86.16
2023-04-14T10:43:38.016Z,87.79
2023-04-14T10:46:26.660Z,89.84
2023-04-14T10:49:15.120Z,88.53
2023-04-14T10:52:06.379Z,85.38
2023-04-14T10:55:00.984Z,86.03
2023-04-14T10:57:49.578Z,85.96
2023-04-14T11:00:39.245Z,85.02
2023-04-14T11:03:32.428Z,85.00
2023-04-14T11:06:49.714Z,85.50
2023-04-14T11:09:38.160Z,85.04
2023-04-14T11:12:28.397Z,86.57
2023-04-14T11:15:17.281Z,85.80
2023-04-14T11:18:13.167Z,83.47
2023-04-14T11:21:06.226Z,83.58
2023-04-14T11:23:54.589Z,84.50
2023-04-14T11:26:44.218Z,84.31
2023-04-14T11:29:34.453Z,82.50
2023-04-14T11:32:22.962Z,84.06
2023-04-14T11:35:12.151Z,83.71
2023-04-14T11:38:01.828Z,84.77
2023-04-14T11:40:50.629Z,83.22
2023-04-14T11:43:39.216Z,81.59
2023-04-14T11:46:29.240Z,82.10
2023-04-14T11:49:17.701Z,82.14
2023-04-14T11:52:07.808Z,81.88
2023-04-14T11:54:56.335Z,82.44
2023-04-14T11:57:45.869Z,83.70
2023-04-14T12:00:34.396Z,83.82
2023-04-14T12:03:27.960Z,83.36
2023-04-14T12:06:16.598Z,82.51
2023-04-14T12:09:09.861Z,80.21
2023-04-14T12:11:58.290Z,80.31
2023-04-14T12:14:48.150Z,81.33
2023-04-14T12:17:37.284Z,79.89
2023-04-14T12:20:27.469Z,80.98
2023-04-14T12:23:16.828Z,81.48
2023-04-14T12:26:10.707Z,79.14
2023-04-14T12:28:59.191Z,78.37
2023-04-14T12:31:47.629Z,79.08
2023-04-14T12:34:36.016Z,80.51
2023-04-14T12:37:29.409Z,78.20
2023-04-14T12:40:18.620Z,79.54
2023-04-14T12:43:07.249Z,79.53
2023-04-14T12:45:58.272Z,78.67
2023-04-14T12:48:48.395Z,78.81
2023-04-14T12:51:39.894Z,78.17
2023-04-14T12:54:47.422Z,78.17
2023-04-14T12:57:36.625Z,77.87
2023-04-14T13:00:27.199Z,76.48
2023-04-14T13:03:15.671Z,75.97
2023-04-14T13:06:04.073Z,76.05
2023-04-14T13:08:54.079Z,76.92
2023-04-14T13:11:44.310Z,77.66
2023-04-14T13:14:32.754Z,75.97
2023-04-14T13:17:21.194Z,75.06
2023-04-14T13:20:11.202Z,76.64
2023-04-14T13:22:59.577Z,76.88
2023-04-14T13:25:48.415Z,74.89
2023-04-14T13:28:38.216Z,75.90
2023-04-14T13:31:26.828Z,76.02
2023-04-14T13:34:15.480Z,75.99
2023-04-14T13:37:03.860Z,76.14
2023-04-14T13:39:52.202Z,71.77
2023-04-14T13:42:40.627Z,73.23
2023-04-14T13:45:30.778Z,71.46
2023-04-14T13:48:19.279Z,71.58
2023-04-14T13:51:07.848Z,72.80
2023-04-14T13:53:56.581Z,71.60
2023-04-14T13:56:44.957Z,71.74
2023-04-14T13:59:33.318Z,70.13
2023-04-14T14:02:23.816Z,71.90
2023-04-14T14:05:12.584Z,70.94
2023-04-14T14:08:00.948Z,71.51
2023-04-14T14:10:49.330Z,72.68
2023-04-14T14:13:39.483Z,73.24
2023-04-14T14:19:20.694Z,67.96
2023-04-14T14:22:09.215Z,70.82
2023-04-14T14:25:10.829Z,69.28
2023-04-14T14:28:03.950Z,68.58
2023-04-14T14:30:52.336Z,70.00
2023-04-14T14:33:40.738Z,69.05
2023-04-14T14:36:30.677Z,67.33
2023-04-14T14:39:19.189Z,70.17
2023-04-14T14:42:07.518Z,69.83
2023-04-14T14:44:55.966Z,68.08
2023-04-14T14:47:46.280Z,68.05
2023-04-14T14:50:34.703Z,67.02
2023-04-14T14:53:24.396Z,68.40
2023-04-14T14:56:12.728Z,69.03
2023-04-14T14:59:01.423Z,67.29
2023-04-14T15:01:49.852Z,68.15
2023-04-14T15:04:38.961Z,66.70
2023-04-14T15:07:27.376Z,68.13
2023-04-14T15:10:17.406Z,66.37
2023-04-14T15:13:06.612Z,66.47
2023-04-14T15:15:56.063Z,67.96
2023-04-14T15:18:44.878Z,68.40
2023-04-14T15:21:33.433Z,68.14
2023-04-14T15:24:21.915Z,67.25
2023-04-14T15:27:11.630Z,66.73
2023-04-14T15:30:00.108Z,67.07
2023-04-14T15:32:48.498Z,65.51
2023-04-14T15:35:38.642Z,64.92
2023-04-14T15:38:27.158Z,67.81
2023-04-14T15:41:15.533Z,67.37
2023-04-14T15:44:05.855Z,67.07
2023-04-14T15:46:54.395Z,66.69
2023-04-14T15:49:42.795Z,67.46
2023-04-14T15:52:36.826Z,66.88
2023-04-14T15:55:25.399Z,66.94
2023-04-14T15:58:13.759Z,66.13
2023-04-14T16:01:07.595Z,65.55
2023-04-14T16:03:56.002Z,68.03
2023-04-14T16:06:46.115Z,69.70
2023-04-14T16:09:35.236Z,70.52
2023-04-14T16:12:24.220Z,71.06
2023-04-14T16:15:12.996Z,72.43
2023-04-14T16:18:02.994Z,72.50
2023-04-14T16:20:51.438Z,71.38
2023-04-14T16:23:39.756Z,71.93
2023-04-14T16:26:28.134Z,70.97
2023-04-14T16:29:16.745Z,74.86
2023-04-14T16:32:05.190Z,75.41
2023-04-14T16:34:55.028Z,74.21
2023-04-14T16:37:43.345Z,73.52
2023-04-14T16:40:32.018Z,76.24
2023-04-14T16:43:20.492Z,76.04
2023-04-14T16:46:08.958Z,76.97
2023-04-14T16:48:57.334Z,77.57
2023-04-14T16:51:47.173Z,77.31
2023-04-14T16:54:36.738Z,77.42
2023-04-14T16:57:25.136Z,76.50
2023-04-14T17:00:14.198Z,75.02
2023-04-14T17:03:02.781Z,76.52
2023-04-14T17:05:51.522Z,75.72
2023-04-14T17:08:41.518Z,75.67
2023-04-14T17:11:29.899Z,75.28
2023-04-14T17:14:18.353Z,75.09
2023-04-14T17:17:07.300Z,76.07
2023-04-14T17:19:56.950Z,75.76
2023-04-14T17:22:45.541Z,75.68
2023-04-14T17:25:35.692Z,75.43
2023-04-14T17:28:24.496Z,74.31
2023-04-14T17:31:14.150Z,73.10
2023-04-14T17:34:03.136Z,73.90
2023-04-14T17:36:51.972Z,74.14
2023-04-14T17:39:40.359Z,75.34
2023-04-14T17:42:30.972Z,75.03
2023-04-14T17:45:23.063Z,75.16
2023-04-14T17:48:11.415Z,75.81
2023-04-14T17:51:00.158Z,75.28
2023-04-14T17:53:49.263Z,75.59
2023-04-14T17:56:37.732Z,74.75
2023-04-14T17:59:27.413Z,75.97
2023-04-14T18:02:16.349Z,76.96
2023-04-14T18:05:05.506Z,77.42
2023-04-14T18:07:55.286Z,78.54
2023-04-14T18:10:45.538Z,78.49
2023-04-14T18:13:34.717Z,78.82
2023-04-14T18:16:24.572Z,79.91
2023-04-14T18:19:13.706Z,79.48
2023-04-14T18:22:03.285Z,80.88
2023-04-14T18:24:52.052Z,79.70
2023-04-14T18:30:32.060Z,78.76
2023-04-14T18:33:21.838Z,78.71
2023-04-14T18:36:10.289Z,79.15
2023-04-14T18:38:59.896Z,79.44
2023-04-14T18:41:48.423Z,78.81
2023-04-14T18:44:36.878Z,77.65
2023-04-14T18:47:25.408Z,77.82
2023-04-14T18:50:15.377Z,78.91
2023-04-14T18:53:03.714Z,78.82
2023-04-14T18:55:52.579Z,79.43
2023-04-14T18:58:41.080Z,80.00
2023-04-14T19:01:29.602Z,80.16
2023-04-14T19:04:17.976Z,79.73
2023-04-14T19:07:07.753Z,78.98
2023-04-14T19:09:56.083Z,78.91
2023-04-14T19:12:44.459Z,80.10
2023-04-14T19:15:32.874Z,79.16
2023-04-14T19:18:21.196Z,79.85
2023-04-14T19:21:09.680Z,81.98
2023-04-14T19:23:59.706Z,83.47
2023-04-14T19:26:48.047Z,83.41
2023-04-14T19:29:37.049Z,83.30
2023-04-14T19:32:25.594Z,83.59
2023-04-14T19:35:13.943Z,83.27
2023-04-14T19:38:02.547Z,83.18
2023-04-14T19:40:53.860Z,82.81
2023-04-14T19:43:42.277Z,82.99
2023-04-14T19:46:30.675Z,81.91
2023-04-14T19:49:19.153Z,81.96
2023-04-14T19:52:07.538Z,81.59
2023-04-14T19:54:56.878Z,81.16
2023-04-14T19:57:47.049Z,81.00
2023-04-14T20:00:40.862Z,81.26
2023-04-14T20:03:29.642Z,81.33
2023-04-14T20:06:19.758Z,81.77
2023-04-14T20:09:08.085Z,81.62
2023-04-14T20:11:56.447Z,81.61
2023-04-14T20:14:46.152Z,82.08
2023-04-14T20:17:35.072Z,82.25
2023-04-14T20:20:23.789Z,81.75
2023-04-14T20:23:12.256Z,81.96
2023-04-14T20:26:01.447Z,82.93
2023-04-14T20:28:50.372Z,82.67
2023-04-14T20:31:41.649Z,82.52
2023-04-14T20:34:30.041Z,83.55
2023-04-14T20:37:18.995Z,83.63
2023-04-14T20:40:08.775Z,84.48
2023-04-14T20:42:57.079Z,84.82
2023-04-14T20:45:45.688Z,85.60
2023-04-14T20:48:35.448Z,86.07
2023-04-14T20:51:24.012Z,85.58
2023-04-14T20:54:12.377Z,85.35
2023-04-14T20:57:03.558Z,85.86
2023-04-14T20:59:52.029Z,85.92
2023-04-14T21:02:40.509Z,86.03
2023-04-14T21:05:30.331Z,86.34
2023-04-14T21:08:19.494Z,86.86
2023-04-14T21:11:16.742Z,87.25
2023-04-14T21:15:31.268Z,86.47
2023-04-14T21:17:14.841Z,87.12
2023-04-14T21:20:03.925Z,87.38
2023-04-14T21:22:54.801Z,86.84
2023-04-14T21:25:43.331Z,87.37
2023-04-14T21:28:32.471Z,89.32
2023-04-14T21:31:21.102Z,89.94
2023-04-14T21:34:09.477Z,89.51
2023-04-14T21:36:58.254Z,89.68
2023-04-14T21:39:47.985Z,90.18
2023-04-14T21:42:36.377Z,90.62
2023-04-14T21:45:26.708Z,90.55
2023-04-14T21:48:15.116Z,91.37
2023-04-14T21:51:04.095Z,90.88
2023-04-14T21:53:53.170Z,91.08
2023-04-14T21:56:42.887Z,90.75
2023-04-14T21:59:31.342Z,90.99
2023-04-14T22:02:20.505Z,90.69
2023-04-14T22:05:09.808Z,91.61
2023-04-14T22:07:58.157Z,91.00
2023-04-14T22:10:47.434Z,90.80
2023-04-14T22:13:37.162Z,90.99
2023-04-14T22:16:25.613Z,91.78
2023-04-14T22:19:14.245Z,92.01
2023-04-14T22:22:02.601Z,92.32
2023-04-14T22:24:51.730Z,92.20
2023-04-14T22:27:40.073Z,92.45
2023-04-14T22:30:29.968Z,92.66
2023-04-14T22:33:18.347Z,92.09
2023-04-14T22:36:07.596Z,92.15
2023-04-14T22:38:55.927Z,92.93
2023-04-14T22:41:45.429Z,93.12
2023-04-14T22:44:33.784Z,92.89
2023-04-14T22:47:23.551Z,92.42
2023-04-14T22:50:12.175Z,91.95
2023-04-14T22:53:01.933Z,91.33
2023-04-14T22:55:50.317Z,91.74
2023-04-14T22:58:39.800Z,91.29
2023-04-14T23:01:29.269Z,91.28
2023-04-14T23:04:19.058Z,90.71
2023-04-14T23:07:07.524Z,89.97
2023-04-14T23:09:55.901Z,89.53
2023-04-14T23:12:44.242Z,89.28
2023-04-14T23:15:32.734Z,88.38
2023-04-14T23:18:21.221Z,88.74
2023-04-14T23:21:11.768Z,88.55
2023-04-14T23:24:00.190Z,87.98
2023-04-14T23:26:48.509Z,87.67
2023-04-14T23:29:37.196Z,87.96
2023-04-14T23:32:25.645Z,88.54
2023-04-14T23:35:14.025Z,88.36
2023-04-14T23:38:04.140Z,88.66
2023-04-14T23:40:58.650Z,88.70
2023-04-14T23:43:49.149Z,88.78
2023-04-14T23:46:37.701Z,89.11
2023-04-14T23:49:33.279Z,90.00
2023-04-14T23:52:23.913Z,90.90
2023-04-14T23:55:13.663Z,90.88
